createdAt,value
2022-11-07T00:09:45.610Z,0
2022-11-07T00:29:46.749Z,0
2022-11-07T00:39:47.004Z,0
2022-11-07T00:49:47.649Z,0
2022-11-07T00:59:48.475Z,0
2022-11-07T01:09:49.030Z,0
2022-11-07T01:19:49.936Z,0
2022-11-07T01:29:50.485Z,0
2022-11-07T01:39:51.165Z,0
2022-11-07T01:49:51.669Z,0
2022-11-07T01:59:51.967Z,0
2022-11-07T02:09:52.302Z,0
2022-11-07T02:19:52.707Z,0
2022-11-07T02:29:53.184Z,0
2022-11-07T02:39:53.552Z,0
2022-11-07T02:49:54.401Z,0
2022-11-07T02:59:54.964Z,0
2022-11-07T03:09:55.261Z,0
2022-11-07T03:19:55.851Z,0
2022-11-07T03:29:56.416Z,0
2022-11-07T03:39:57.447Z,0
2022-11-07T03:49:58.354Z,0
2022-11-07T03:59:59.144Z,0
2022-11-07T04:09:59.491Z,0
2022-11-07T04:19:59.912Z,0
2022-11-07T04:30:00.168Z,0
2022-11-07T04:40:00.998Z,0
2022-11-07T04:50:01.115Z,0
2022-11-07T05:00:01.391Z,0
2022-11-07T05:10:01.788Z,0
2022-11-07T05:20:02.409Z,0
2022-11-07T05:30:03.083Z,0
2022-11-07T05:40:04.100Z,0
2022-11-07T05:50:04.547Z,0
2022-11-07T06:00:05.097Z,0
2022-11-07T06:10:05.732Z,0
2022-11-07T06:20:06.282Z,0
2022-11-07T06:30:07.153Z,0
2022-11-07T06:40:07.304Z,1
2022-11-07T06:50:08.007Z,6
2022-11-07T07:00:08.938Z,15
2022-11-07T07:20:09.952Z,22
2022-11-07T07:30:10.248Z,27
2022-11-07T07:40:11.057Z,29
2022-11-07T07:50:11.267Z,31
2022-11-07T08:00:11.864Z,36
2022-11-07T08:10:35.454Z,35
2022-11-07T08:20:13.206Z,36
2022-11-07T08:30:17.688Z,33
2022-11-07T08:40:14.480Z,31
2022-11-07T08:50:14.943Z,24
2022-11-07T09:00:15.735Z,17
2022-11-07T09:10:16.106Z,16
2022-11-07T09:20:16.322Z,10
2022-11-07T09:30:16.970Z,9
2022-11-07T09:40:17.361Z,7
2022-11-07T09:50:18.195Z,9
2022-11-07T10:10:19.402Z,9
2022-11-07T10:20:24.404Z,0
2022-11-07T10:30:20.251Z,0
2022-11-07T10:40:21.036Z,91
2022-11-07T10:50:21.360Z,52
2022-11-07T11:00:21.486Z,42
2022-11-07T11:10:21.979Z,27
2022-11-07T11:20:22.430Z,33
2022-11-07T11:30:23.181Z,78
2022-11-07T11:40:24.124Z,64
2022-11-07T11:50:24.651Z,72
2022-11-07T12:00:25.113Z,0
2022-11-07T12:10:25.612Z,0
2022-11-07T12:20:26.071Z,0
2022-11-07T12:30:26.144Z,0
2022-11-07T12:40:26.982Z,0
2022-11-07T12:50:27.600Z,0
2022-11-07T13:00:30.116Z,0
2022-11-07T13:10:28.862Z,0
2022-11-07T13:20:29.165Z,0
2022-11-07T13:30:29.516Z,0
2022-11-07T13:40:29.940Z,19
2022-11-07T13:50:30.525Z,21
2022-11-07T14:10:31.767Z,44
2022-11-07T14:20:31.859Z,47
2022-11-07T14:30:32.038Z,37
2022-11-07T14:40:32.916Z,42
2022-11-07T14:50:33.468Z,43
2022-11-07T15:00:33.890Z,43
2022-11-07T15:10:34.904Z,47
2022-11-07T15:20:35.524Z,37
2022-11-07T15:30:35.853Z,33
2022-11-07T15:40:36.457Z,37
2022-11-07T15:50:36.857Z,34
2022-11-07T16:00:37.807Z,34
2022-11-07T16:10:37.860Z,36
2022-11-07T16:20:38.700Z,38
2022-11-07T16:30:39.050Z,35
2022-11-07T16:40:39.145Z,31
2022-11-07T17:00:40.436Z,20
2022-11-07T17:10:41.352Z,20
2022-11-07T17:20:50.729Z,15
2022-11-07T17:30:42.896Z,20
2022-11-07T17:40:43.795Z,18
2022-11-07T17:50:44.629Z,14
2022-11-07T18:00:45.166Z,17
2022-11-07T18:10:45.790Z,21
2022-11-07T18:20:46.792Z,20
2022-11-07T18:30:47.106Z,18
2022-11-07T18:40:47.385Z,15
2022-11-07T18:50:47.457Z,15
2022-11-07T19:00:48.480Z,11
2022-11-07T19:10:49.104Z,6
2022-11-07T19:20:50.059Z,7
2022-11-07T19:30:50.891Z,3
2022-11-07T19:40:51.796Z,6
2022-11-07T20:00:53.237Z,0
2022-11-07T20:10:53.570Z,3
2022-11-07T20:20:54.108Z,0
2022-11-07T20:30:54.147Z,1
2022-11-07T20:40:54.585Z,4
2022-11-07T20:50:55.300Z,6
2022-11-07T21:00:56.373Z,2
2022-11-07T21:10:57.329Z,5
2022-11-07T21:20:57.513Z,8
2022-11-07T21:30:58.157Z,1
2022-11-07T21:40:58.674Z,0
2022-11-07T21:50:59.680Z,0
2022-11-07T22:00:59.813Z,0
2022-11-07T22:11:00.292Z,0
2022-11-07T22:21:01.146Z,0
2022-11-07T22:31:01.651Z,0
2022-11-07T22:41:02.381Z,0
2022-11-07T22:51:02.687Z,0
2022-11-07T23:01:02.880Z,0
2022-11-07T23:11:45.087Z,0
2022-11-07T23:21:09.549Z,0
2022-11-07T23:31:10.495Z,51
2022-11-07T23:51:12.181Z,0
